sensor_id;sensor_type;location;lat;lon;timestamp;P1;durP1;ratioP1;P2;durP2;ratioP2
26774;SDS011;14362;51.902;7.626;2023-08-17T00:01:13;3.67;;;2.13;;
26774;SDS011;14362;51.902;7.626;2023-08-17T00:05:14;7.95;;;2.30;;
26774;SDS011;14362;51.902;7.626;2023-08-17T00:09:17;5.80;;;2.10;;
26774;SDS011;14362;51.902;7.626;2023-08-17T00:13:19;5.32;;;2.08;;
26774;SDS011;14362;51.902;7.626;2023-08-17T00:17:20;5.10;;;2.53;;
26774;SDS011;14362;51.902;7.626;2023-08-17T00:21:23;3.60;;;2.20;;
26774;SDS011;14362;51.902;7.626;2023-08-17T00:25:26;3.60;;;1.98;;
26774;SDS011;14362;51.902;7.626;2023-08-17T00:29:27;4.25;;;2.05;;
26774;SDS011;14362;51.902;7.626;2023-08-17T00:33:29;5.45;;;2.33;;
26774;SDS011;14362;51.902;7.626;2023-08-17T00:37:30;7.60;;;3.05;;
26774;SDS011;14362;51.902;7.626;2023-08-17T00:41:33;7.47;;;2.08;;
26774;SDS011;14362;51.902;7.626;2023-08-17T00:45:35;3.65;;;2.08;;
26774;SDS011;14362;51.902;7.626;2023-08-17T00:49:37;5.30;;;2.22;;
26774;SDS011;14362;51.902;7.626;2023-08-17T00:53:38;6.05;;;1.90;;
26774;SDS011;14362;51.902;7.626;2023-08-17T00:57:41;5.57;;;2.13;;
26774;SDS011;14362;51.902;7.626;2023-08-17T01:01:43;4.47;;;2.00;;
26774;SDS011;14362;51.902;7.626;2023-08-17T01:05:45;3.97;;;2.10;;
26774;SDS011;14362;51.902;7.626;2023-08-17T01:09:46;3.22;;;2.20;;
26774;SDS011;14362;51.902;7.626;2023-08-17T01:13:51;3.63;;;1.80;;
26774;SDS011;14362;51.902;7.626;2023-08-17T01:17:58;4.15;;;2.17;;
26774;SDS011;14362;51.902;7.626;2023-08-17T01:22:06;8.20;;;2.05;;
26774;SDS011;14362;51.902;7.626;2023-08-17T01:26:11;5.05;;;1.98;;
26774;SDS011;14362;51.902;7.626;2023-08-17T01:30:16;8.00;;;3.13;;
26774;SDS011;14362;51.902;7.626;2023-08-17T01:34:19;7.70;;;3.67;;
26774;SDS011;14362;51.902;7.626;2023-08-17T01:38:25;8.73;;;4.30;;
26774;SDS011;14362;51.902;7.626;2023-08-17T01:42:31;6.82;;;3.20;;
26774;SDS011;14362;51.902;7.626;2023-08-17T01:46:34;6.68;;;3.53;;
26774;SDS011;14362;51.902;7.626;2023-08-17T01:50:36;7.82;;;3.28;;
26774;SDS011;14362;51.902;7.626;2023-08-17T01:54:37;8.95;;;3.90;;
26774;SDS011;14362;51.902;7.626;2023-08-17T01:58:40;7.00;;;3.60;;
26774;SDS011;14362;51.902;7.626;2023-08-17T02:02:42;4.90;;;3.65;;
26774;SDS011;14362;51.902;7.626;2023-08-17T02:06:43;8.27;;;3.72;;
26774;SDS011;14362;51.902;7.626;2023-08-17T02:10:45;9.25;;;3.72;;
26774;SDS011;14362;51.902;7.626;2023-08-17T02:14:47;6.90;;;3.50;;
26774;SDS011;14362;51.902;7.626;2023-08-17T02:18:49;6.25;;;3.38;;
26774;SDS011;14362;51.902;7.626;2023-08-17T02:22:50;6.85;;;3.25;;
26774;SDS011;14362;51.902;7.626;2023-08-17T02:26:52;5.65;;;3.63;;
26774;SDS011;14362;51.902;7.626;2023-08-17T02:30:56;8.95;;;3.83;;
26774;SDS011;14362;51.902;7.626;2023-08-17T02:34:58;6.82;;;4.10;;
26774;SDS011;14362;51.902;7.626;2023-08-17T02:38:59;8.45;;;4.55;;
26774;SDS011;14362;51.902;7.626;2023-08-17T02:43:01;7.55;;;4.22;;
26774;SDS011;14362;51.902;7.626;2023-08-17T02:47:04;7.43;;;4.45;;
26774;SDS011;14362;51.902;7.626;2023-08-17T02:51:06;6.82;;;4.55;;
26774;SDS011;14362;51.902;7.626;2023-08-17T02:55:07;7.35;;;4.25;;
26774;SDS011;14362;51.902;7.626;2023-08-17T02:59:09;7.40;;;3.85;;
26774;SDS011;14362;51.902;7.626;2023-08-17T03:03:12;7.57;;;4.40;;
26774;SDS011;14362;51.902;7.626;2023-08-17T03:07:13;7.03;;;4.40;;
26774;SDS011;14362;51.902;7.626;2023-08-17T03:11:15;6.45;;;4.72;;
26774;SDS011;14362;51.902;7.626;2023-08-17T03:15:16;7.68;;;4.88;;
26774;SDS011;14362;51.902;7.626;2023-08-17T03:19:20;9.55;;;5.15;;
26774;SDS011;14362;51.902;7.626;2023-08-17T03:23:22;6.80;;;4.47;;
26774;SDS011;14362;51.902;7.626;2023-08-17T03:27:23;5.70;;;4.47;;
26774;SDS011;14362;51.902;7.626;2023-08-17T03:31:25;9.25;;;5.20;;
26774;SDS011;14362;51.902;7.626;2023-08-17T03:35:27;12.18;;;4.65;;
26774;SDS011;14362;51.902;7.626;2023-08-17T03:39:29;7.97;;;4.85;;
26774;SDS011;14362;51.902;7.626;2023-08-17T03:43:31;5.60;;;4.53;;
26774;SDS011;14362;51.902;7.626;2023-08-17T03:47:32;11.20;;;4.88;;
26774;SDS011;14362;51.902;7.626;2023-08-17T03:51:35;14.70;;;5.28;;
26774;SDS011;14362;51.902;7.626;2023-08-17T03:55:36;8.77;;;4.82;;
26774;SDS011;14362;51.902;7.626;2023-08-17T03:59:38;9.07;;;4.32;;
26774;SDS011;14362;51.902;7.626;2023-08-17T04:03:39;8.48;;;4.85;;
26774;SDS011;14362;51.902;7.626;2023-08-17T04:07:42;7.95;;;4.93;;
26774;SDS011;14362;51.902;7.626;2023-08-17T04:11:44;8.68;;;4.93;;
26774;SDS011;14362;51.902;7.626;2023-08-17T04:15:45;11.02;;;5.43;;
26774;SDS011;14362;51.902;7.626;2023-08-17T04:19:47;9.25;;;4.82;;
26774;SDS011;14362;51.902;7.626;2023-08-17T04:23:50;7.30;;;4.50;;
26774;SDS011;14362;51.902;7.626;2023-08-17T04:27:51;8.85;;;4.40;;
26774;SDS011;14362;51.902;7.626;2023-08-17T04:31:53;8.68;;;5.28;;
26774;SDS011;14362;51.902;7.626;2023-08-17T04:35:54;9.38;;;5.63;;
26774;SDS011;14362;51.902;7.626;2023-08-17T04:39:57;9.65;;;5.07;;
26774;SDS011;14362;51.902;7.626;2023-08-17T04:43:58;8.63;;;4.32;;
26774;SDS011;14362;51.902;7.626;2023-08-17T04:48:00;10.93;;;5.30;;
26774;SDS011;14362;51.902;7.626;2023-08-17T04:52:01;6.00;;;4.38;;
26774;SDS011;14362;51.902;7.626;2023-08-17T04:56:05;8.30;;;5.28;;
26774;SDS011;14362;51.902;7.626;2023-08-17T05:00:07;9.50;;;4.78;;
26774;SDS011;14362;51.902;7.626;2023-08-17T05:04:09;8.30;;;5.20;;
26774;SDS011;14362;51.902;7.626;2023-08-17T05:08:11;8.07;;;4.88;;
26774;SDS011;14362;51.902;7.626;2023-08-17T05:12:15;8.18;;;5.20;;
26774;SDS011;14362;51.902;7.626;2023-08-17T05:16:16;7.70;;;4.53;;
26774;SDS011;14362;51.902;7.626;2023-08-17T05:20:18;4.70;;;4.25;;
26774;SDS011;14362;51.902;7.626;2023-08-17T05:24:20;8.13;;;5.00;;
26774;SDS011;14362;51.902;7.626;2023-08-17T05:28:23;10.27;;;5.57;;
26774;SDS011;14362;51.902;7.626;2023-08-17T05:32:25;6.35;;;5.07;;
26774;SDS011;14362;51.902;7.626;2023-08-17T05:36:26;10.27;;;5.30;;
26774;SDS011;14362;51.902;7.626;2023-08-17T05:40:28;7.70;;;5.63;;
26774;SDS011;14362;51.902;7.626;2023-08-17T05:44:31;7.38;;;5.30;;
26774;SDS011;14362;51.902;7.626;2023-08-17T05:48:33;9.57;;;6.00;;
26774;SDS011;14362;51.902;7.626;2023-08-17T05:52:35;8.15;;;5.70;;
26774;SDS011;14362;51.902;7.626;2023-08-17T05:56:36;6.72;;;5.20;;
26774;SDS011;14362;51.902;7.626;2023-08-17T06:00:39;7.78;;;5.28;;
26774;SDS011;14362;51.902;7.626;2023-08-17T06:04:41;11.90;;;5.47;;
26774;SDS011;14362;51.902;7.626;2023-08-17T06:08:42;9.32;;;5.80;;
26774;SDS011;14362;51.902;7.626;2023-08-17T06:12:44;9.10;;;5.20;;
26774;SDS011;14362;51.902;7.626;2023-08-17T06:16:47;7.15;;;5.13;;
26774;SDS011;14362;51.902;7.626;2023-08-17T06:20:48;6.30;;;4.85;;
26774;SDS011;14362;51.902;7.626;2023-08-17T06:24:52;7.78;;;5.25;;
26774;SDS011;14362;51.902;7.626;2023-08-17T06:28:53;8.38;;;5.45;;
26774;SDS011;14362;51.902;7.626;2023-08-17T06:32:56;8.60;;;5.70;;
26774;SDS011;14362;51.902;7.626;2023-08-17T06:36:57;9.20;;;5.00;;
26774;SDS011;14362;51.902;7.626;2023-08-17T06:40:59;10.75;;;5.40;;
26774;SDS011;14362;51.902;7.626;2023-08-17T06:45:01;8.60;;;5.00;;
26774;SDS011;14362;51.902;7.626;2023-08-17T06:49:04;8.13;;;5.57;;
26774;SDS011;14362;51.902;7.626;2023-08-17T06:53:05;6.95;;;5.00;;
26774;SDS011;14362;51.902;7.626;2023-08-17T06:57:07;11.20;;;5.38;;
26774;SDS011;14362;51.902;7.626;2023-08-17T07:01:08;9.90;;;4.95;;
26774;SDS011;14362;51.902;7.626;2023-08-17T07:05:11;7.75;;;5.75;;
26774;SDS011;14362;51.902;7.626;2023-08-17T07:09:13;9.07;;;6.10;;
26774;SDS011;14362;51.902;7.626;2023-08-17T07:13:14;6.10;;;5.13;;
26774;SDS011;14362;51.902;7.626;2023-08-17T07:17:16;6.10;;;5.38;;
26774;SDS011;14362;51.902;7.626;2023-08-17T07:21:19;7.93;;;5.20;;
26774;SDS011;14362;51.902;7.626;2023-08-17T07:25:20;8.57;;;6.43;;
26774;SDS011;14362;51.902;7.626;2023-08-17T07:29:22;10.48;;;5.57;;
26774;SDS011;14362;51.902;7.626;2023-08-17T07:33:24;8.93;;;6.20;;
26774;SDS011;14362;51.902;7.626;2023-08-17T07:37:26;10.00;;;6.97;;
26774;SDS011;14362;51.902;7.626;2023-08-17T07:41:33;9.50;;;6.57;;
26774;SDS011;14362;51.902;7.626;2023-08-17T07:45:34;9.48;;;7.28;;
26774;SDS011;14362;51.902;7.626;2023-08-17T07:49:35;13.35;;;7.03;;
26774;SDS011;14362;51.902;7.626;2023-08-17T07:53:38;14.48;;;7.88;;
26774;SDS011;14362;51.902;7.626;2023-08-17T07:57:40;14.05;;;8.02;;
26774;SDS011;14362;51.902;7.626;2023-08-17T08:01:41;8.52;;;7.63;;
26774;SDS011;14362;51.902;7.626;2023-08-17T08:05:43;9.00;;;7.63;;
26774;SDS011;14362;51.902;7.626;2023-08-17T08:09:45;11.77;;;8.00;;
26774;SDS011;14362;51.902;7.626;2023-08-17T08:13:47;12.05;;;8.30;;
26774;SDS011;14362;51.902;7.626;2023-08-17T08:17:48;12.38;;;7.75;;
26774;SDS011;14362;51.902;7.626;2023-08-17T08:21:50;10.57;;;9.48;;
26774;SDS011;14362;51.902;7.626;2023-08-17T08:25:53;11.77;;;9.55;;
26774;SDS011;14362;51.902;7.626;2023-08-17T08:29:54;10.13;;;8.45;;
26774;SDS011;14362;51.902;7.626;2023-08-17T08:33:56;13.02;;;10.45;;
26774;SDS011;14362;51.902;7.626;2023-08-17T08:37:58;12.48;;;10.50;;
26774;SDS011;14362;51.902;7.626;2023-08-17T08:42:01;12.13;;;10.13;;
26774;SDS011;14362;51.902;7.626;2023-08-17T08:46:02;11.30;;;9.23;;
26774;SDS011;14362;51.902;7.626;2023-08-17T08:50:05;10.95;;;9.63;;
26774;SDS011;14362;51.902;7.626;2023-08-17T08:54:07;13.85;;;10.00;;
26774;SDS011;14362;51.902;7.626;2023-08-17T08:58:14;15.30;;;10.02;;
26774;SDS011;14362;51.902;7.626;2023-08-17T09:02:16;13.18;;;10.80;;
26774;SDS011;14362;51.902;7.626;2023-08-17T09:06:18;14.80;;;10.77;;
26774;SDS011;14362;51.902;7.626;2023-08-17T09:10:21;12.50;;;11.30;;
26774;SDS011;14362;51.902;7.626;2023-08-17T09:14:24;12.23;;;10.95;;
26774;SDS011;14362;51.902;7.626;2023-08-17T09:18:25;16.42;;;11.75;;
26774;SDS011;14362;51.902;7.626;2023-08-17T09:22:36;14.80;;;10.98;;
26774;SDS011;14362;51.902;7.626;2023-08-17T09:26:39;14.60;;;11.52;;
26774;SDS011;14362;51.902;7.626;2023-08-17T09:30:51;14.18;;;10.90;;
26774;SDS011;14362;51.902;7.626;2023-08-17T09:34:53;12.75;;;11.23;;
26774;SDS011;14362;51.902;7.626;2023-08-17T09:38:55;13.75;;;11.63;;
26774;SDS011;14362;51.902;7.626;2023-08-17T09:42:57;12.80;;;11.32;;
26774;SDS011;14362;51.902;7.626;2023-08-17T09:47:01;11.30;;;10.20;;
26774;SDS011;14362;51.902;7.626;2023-08-17T09:51:02;15.73;;;11.90;;
26774;SDS011;14362;51.902;7.626;2023-08-17T09:55:06;15.73;;;11.20;;
26774;SDS011;14362;51.902;7.626;2023-08-17T09:59:10;12.55;;;11.00;;
26774;SDS011;14362;51.902;7.626;2023-08-17T10:03:15;13.65;;;11.32;;
26774;SDS011;14362;51.902;7.626;2023-08-17T10:07:17;18.42;;;11.80;;
26774;SDS011;14362;51.902;7.626;2023-08-17T10:11:20;13.02;;;10.52;;
26774;SDS011;14362;51.902;7.626;2023-08-17T10:15:24;11.98;;;10.77;;
26774;SDS011;14362;51.902;7.626;2023-08-17T10:19:33;15.73;;;12.23;;
26774;SDS011;14362;51.902;7.626;2023-08-17T10:23:44;14.40;;;11.20;;
26774;SDS011;14362;51.902;7.626;2023-08-17T10:27:46;18.10;;;12.80;;
26774;SDS011;14362;51.902;7.626;2023-08-17T10:31:48;16.35;;;12.50;;
26774;SDS011;14362;51.902;7.626;2023-08-17T10:35:51;13.40;;;11.35;;
26774;SDS011;14362;51.902;7.626;2023-08-17T10:39:53;13.68;;;12.27;;
26774;SDS011;14362;51.902;7.626;2023-08-17T10:43:55;13.68;;;12.32;;
26774;SDS011;14362;51.902;7.626;2023-08-17T10:52:30;12.25;;;10.98;;
26774;SDS011;14362;51.902;7.626;2023-08-17T10:56:32;13.38;;;11.98;;
26774;SDS011;14362;51.902;7.626;2023-08-17T11:00:34;12.38;;;11.18;;
26774;SDS011;14362;51.902;7.626;2023-08-17T11:04:37;15.27;;;11.50;;
26774;SDS011;14362;51.902;7.626;2023-08-17T11:08:50;14.88;;;12.30;;
26774;SDS011;14362;51.902;7.626;2023-08-17T11:16:56;12.48;;;11.15;;
26774;SDS011;14362;51.902;7.626;2023-08-17T11:20:58;12.27;;;11.10;;
26774;SDS011;14362;51.902;7.626;2023-08-17T11:25:02;14.50;;;12.32;;
26774;SDS011;14362;51.902;7.626;2023-08-17T11:29:05;14.50;;;13.00;;
26774;SDS011;14362;51.902;7.626;2023-08-17T11:33:07;12.73;;;11.43;;
26774;SDS011;14362;51.902;7.626;2023-08-17T11:37:10;13.82;;;12.07;;
26774;SDS011;14362;51.902;7.626;2023-08-17T11:41:13;14.73;;;11.63;;
26774;SDS011;14362;51.902;7.626;2023-08-17T11:45:15;18.77;;;12.88;;
26774;SDS011;14362;51.902;7.626;2023-08-17T11:49:17;19.25;;;12.13;;
26774;SDS011;14362;51.902;7.626;2023-08-17T11:53:18;15.60;;;13.43;;
26774;SDS011;14362;51.902;7.626;2023-08-17T11:57:21;16.17;;;12.23;;
26774;SDS011;14362;51.902;7.626;2023-08-17T12:01:23;22.70;;;15.18;;
26774;SDS011;14362;51.902;7.626;2023-08-17T12:05:25;17.63;;;14.73;;
26774;SDS011;14362;51.902;7.626;2023-08-17T12:09:31;18.30;;;14.90;;
26774;SDS011;14362;51.902;7.626;2023-08-17T12:13:34;19.27;;;15.23;;
26774;SDS011;14362;51.902;7.626;2023-08-17T12:17:36;19.40;;;16.70;;
26774;SDS011;14362;51.902;7.626;2023-08-17T12:21:45;17.08;;;15.25;;
26774;SDS011;14362;51.902;7.626;2023-08-17T12:25:51;20.23;;;17.50;;
26774;SDS011;14362;51.902;7.626;2023-08-17T12:29:55;19.25;;;16.98;;
26774;SDS011;14362;51.902;7.626;2023-08-17T12:33:56;18.05;;;15.85;;
26774;SDS011;14362;51.902;7.626;2023-08-17T12:37:58;21.17;;;15.93;;
26774;SDS011;14362;51.902;7.626;2023-08-17T12:41:59;21.38;;;17.52;;
26774;SDS011;14362;51.902;7.626;2023-08-17T12:46:02;16.45;;;14.75;;
26774;SDS011;14362;51.902;7.626;2023-08-17T12:50:04;17.73;;;14.95;;
26774;SDS011;14362;51.902;7.626;2023-08-17T12:54:06;15.90;;;14.20;;
26774;SDS011;14362;51.902;7.626;2023-08-17T12:58:07;15.48;;;13.82;;
26774;SDS011;14362;51.902;7.626;2023-08-17T13:02:10;15.50;;;13.50;;
26774;SDS011;14362;51.902;7.626;2023-08-17T13:06:12;14.60;;;12.52;;
26774;SDS011;14362;51.902;7.626;2023-08-17T13:10:13;16.73;;;11.38;;
26774;SDS011;14362;51.902;7.626;2023-08-17T13:14:15;13.65;;;12.15;;
26774;SDS011;14362;51.902;7.626;2023-08-17T13:18:18;13.85;;;12.35;;
26774;SDS011;14362;51.902;7.626;2023-08-17T13:22:19;14.40;;;12.23;;
26774;SDS011;14362;51.902;7.626;2023-08-17T13:26:21;13.70;;;12.25;;
26774;SDS011;14362;51.902;7.626;2023-08-17T13:30:23;13.20;;;11.80;;
26774;SDS011;14362;51.902;7.626;2023-08-17T13:34:26;14.88;;;11.63;;
26774;SDS011;14362;51.902;7.626;2023-08-17T13:38:27;14.20;;;12.70;;
26774;SDS011;14362;51.902;7.626;2023-08-17T13:42:29;15.63;;;12.75;;
26774;SDS011;14362;51.902;7.626;2023-08-17T13:46:30;16.10;;;13.50;;
26774;SDS011;14362;51.902;7.626;2023-08-17T13:50:33;15.27;;;13.18;;
26774;SDS011;14362;51.902;7.626;2023-08-17T13:54:35;14.27;;;12.77;;
26774;SDS011;14362;51.902;7.626;2023-08-17T13:58:36;16.00;;;11.65;;
26774;SDS011;14362;51.902;7.626;2023-08-17T14:02:38;17.30;;;12.35;;
26774;SDS011;14362;51.902;7.626;2023-08-17T14:06:40;13.52;;;12.15;;
26774;SDS011;14362;51.902;7.626;2023-08-17T14:10:42;13.32;;;11.75;;
26774;SDS011;14362;51.902;7.626;2023-08-17T14:14:43;14.55;;;11.63;;
26774;SDS011;14362;51.902;7.626;2023-08-17T14:18:45;13.18;;;11.88;;
26774;SDS011;14362;51.902;7.626;2023-08-17T14:22:47;12.23;;;11.02;;
26774;SDS011;14362;51.902;7.626;2023-08-17T14:26:49;12.07;;;10.80;;
26774;SDS011;14362;51.902;7.626;2023-08-17T14:30:50;13.15;;;11.88;;
26774;SDS011;14362;51.902;7.626;2023-08-17T14:34:52;12.50;;;11.25;;
26774;SDS011;14362;51.902;7.626;2023-08-17T14:38:54;11.55;;;10.45;;
26774;SDS011;14362;51.902;7.626;2023-08-17T14:42:56;11.55;;;10.45;;
26774;SDS011;14362;51.902;7.626;2023-08-17T14:46:57;14.32;;;12.20;;
26774;SDS011;14362;51.902;7.626;2023-08-17T14:50:58;17.92;;;14.23;;
26774;SDS011;14362;51.902;7.626;2023-08-17T14:55:01;15.20;;;13.45;;
26774;SDS011;14362;51.902;7.626;2023-08-17T14:59:04;16.23;;;14.40;;
26774;SDS011;14362;51.902;7.626;2023-08-17T15:03:05;14.95;;;13.52;;
26774;SDS011;14362;51.902;7.626;2023-08-17T15:07:07;14.38;;;12.93;;
26774;SDS011;14362;51.902;7.626;2023-08-17T15:11:12;13.38;;;11.98;;
26774;SDS011;14362;51.902;7.626;2023-08-17T15:15:14;12.10;;;10.23;;
26774;SDS011;14362;51.902;7.626;2023-08-17T15:19:15;14.65;;;11.55;;
26774;SDS011;14362;51.902;7.626;2023-08-17T15:23:17;13.18;;;11.82;;
26774;SDS011;14362;51.902;7.626;2023-08-17T15:27:19;12.55;;;11.35;;
26774;SDS011;14362;51.902;7.626;2023-08-17T15:31:21;13.45;;;10.65;;
26774;SDS011;14362;51.902;7.626;2023-08-17T15:35:22;11.88;;;10.68;;
26774;SDS011;14362;51.902;7.626;2023-08-17T15:39:24;11.32;;;10.07;;
26774;SDS011;14362;51.902;7.626;2023-08-17T15:43:27;11.27;;;10.05;;
26774;SDS011;14362;51.902;7.626;2023-08-17T15:47:28;11.88;;;10.68;;
26774;SDS011;14362;51.902;7.626;2023-08-17T15:51:31;11.30;;;10.20;;
26774;SDS011;14362;51.902;7.626;2023-08-17T15:55:32;11.30;;;10.18;;
26774;SDS011;14362;51.902;7.626;2023-08-17T15:59:35;10.85;;;9.75;;
26774;SDS011;14362;51.902;7.626;2023-08-17T16:07:40;11.50;;;10.27;;
26774;SDS011;14362;51.902;7.626;2023-08-17T16:11:41;12.18;;;10.93;;
26774;SDS011;14362;51.902;7.626;2023-08-17T16:15:44;12.85;;;11.75;;
26774;SDS011;14362;51.902;7.626;2023-08-17T16:19:45;12.85;;;11.68;;
26774;SDS011;14362;51.902;7.626;2023-08-17T16:23:47;11.80;;;10.50;;
26774;SDS011;14362;51.902;7.626;2023-08-17T16:27:48;13.43;;;12.00;;
26774;SDS011;14362;51.902;7.626;2023-08-17T16:32:00;15.55;;;13.50;;
26774;SDS011;14362;51.902;7.626;2023-08-17T16:36:02;14.60;;;13.10;;
26774;SDS011;14362;51.902;7.626;2023-08-17T16:40:05;13.60;;;12.18;;
26774;SDS011;14362;51.902;7.626;2023-08-17T16:44:07;13.60;;;12.23;;
26774;SDS011;14362;51.902;7.626;2023-08-17T16:48:10;13.95;;;12.73;;
26774;SDS011;14362;51.902;7.626;2023-08-17T16:52:11;12.05;;;10.93;;
26774;SDS011;14362;51.902;7.626;2023-08-17T16:56:13;11.30;;;10.30;;
26774;SDS011;14362;51.902;7.626;2023-08-17T17:00:15;10.27;;;9.38;;
26774;SDS011;14362;51.902;7.626;2023-08-17T17:04:18;9.93;;;9.00;;
26774;SDS011;14362;51.902;7.626;2023-08-17T17:08:19;10.00;;;9.00;;
26774;SDS011;14362;51.902;7.626;2023-08-17T17:12:21;9.18;;;8.27;;
26774;SDS011;14362;51.902;7.626;2023-08-17T17:16:22;7.57;;;6.82;;
26774;SDS011;14362;51.902;7.626;2023-08-17T17:20:25;6.93;;;6.32;;
26774;SDS011;14362;51.902;7.626;2023-08-17T17:24:26;6.85;;;5.97;;
26774;SDS011;14362;51.902;7.626;2023-08-17T17:28:28;7.10;;;4.90;;
26774;SDS011;14362;51.902;7.626;2023-08-17T17:32:29;6.10;;;5.07;;
26774;SDS011;14362;51.902;7.626;2023-08-17T17:36:32;6.68;;;5.13;;
26774;SDS011;14362;51.902;7.626;2023-08-17T17:40:34;5.53;;;5.03;;
26774;SDS011;14362;51.902;7.626;2023-08-17T17:44:36;5.82;;;5.20;;
26774;SDS011;14362;51.902;7.626;2023-08-17T17:48:37;6.10;;;5.50;;
26774;SDS011;14362;51.902;7.626;2023-08-17T17:52:40;6.15;;;5.55;;
26774;SDS011;14362;51.902;7.626;2023-08-17T17:56:41;6.82;;;6.15;;
26774;SDS011;14362;51.902;7.626;2023-08-17T18:00:45;8.02;;;7.22;;
26774;SDS011;14362;51.902;7.626;2023-08-17T18:04:47;8.20;;;7.40;;
26774;SDS011;14362;51.902;7.626;2023-08-17T18:08:50;7.60;;;6.88;;
26774;SDS011;14362;51.902;7.626;2023-08-17T18:12:51;7.68;;;6.35;;
26774;SDS011;14362;51.902;7.626;2023-08-17T18:16:53;6.38;;;5.50;;
26774;SDS011;14362;51.902;7.626;2023-08-17T18:20:54;6.68;;;5.00;;
26774;SDS011;14362;51.902;7.626;2023-08-17T18:24:57;6.28;;;4.85;;
26774;SDS011;14362;51.902;7.626;2023-08-17T18:28:58;5.57;;;4.80;;
26774;SDS011;14362;51.902;7.626;2023-08-17T18:33:00;6.05;;;4.95;;
26774;SDS011;14362;51.902;7.626;2023-08-17T18:37:02;8.18;;;4.55;;
26774;SDS011;14362;51.902;7.626;2023-08-17T18:41:08;5.10;;;4.60;;
26774;SDS011;14362;51.902;7.626;2023-08-17T18:45:10;5.82;;;4.60;;
26774;SDS011;14362;51.902;7.626;2023-08-17T18:49:11;5.75;;;4.32;;
26774;SDS011;14362;51.902;7.626;2023-08-17T18:53:12;5.72;;;4.82;;
26774;SDS011;14362;51.902;7.626;2023-08-17T18:57:15;5.97;;;4.45;;
26774;SDS011;14362;51.902;7.626;2023-08-17T19:01:17;5.95;;;5.15;;
26774;SDS011;14362;51.902;7.626;2023-08-17T19:05:18;5.03;;;4.53;;
26774;SDS011;14362;51.902;7.626;2023-08-17T19:09:19;6.93;;;5.00;;
26774;SDS011;14362;51.902;7.626;2023-08-17T19:13:22;6.10;;;5.30;;
26774;SDS011;14362;51.902;7.626;2023-08-17T19:17:24;8.70;;;5.63;;
26774;SDS011;14362;51.902;7.626;2023-08-17T19:21:26;7.18;;;5.43;;
26774;SDS011;14362;51.902;7.626;2023-08-17T19:25:27;8.50;;;5.90;;
26774;SDS011;14362;51.902;7.626;2023-08-17T19:29:30;10.10;;;6.40;;
26774;SDS011;14362;51.902;7.626;2023-08-17T19:33:31;8.48;;;6.25;;
26774;SDS011;14362;51.902;7.626;2023-08-17T19:37:33;6.65;;;5.95;;
26774;SDS011;14362;51.902;7.626;2023-08-17T19:41:35;7.55;;;5.85;;
26774;SDS011;14362;51.902;7.626;2023-08-17T19:45:37;8.25;;;6.82;;
26774;SDS011;14362;51.902;7.626;2023-08-17T19:49:39;8.10;;;6.70;;
26774;SDS011;14362;51.902;7.626;2023-08-17T19:53:40;8.02;;;5.80;;
26774;SDS011;14362;51.902;7.626;2023-08-17T19:57:42;9.05;;;6.95;;
26774;SDS011;14362;51.902;7.626;2023-08-17T20:01:44;7.57;;;6.35;;
26774;SDS011;14362;51.902;7.626;2023-08-17T20:09:49;8.07;;;5.82;;
26774;SDS011;14362;51.902;7.626;2023-08-17T20:13:50;7.53;;;5.90;;
26774;SDS011;14362;51.902;7.626;2023-08-17T20:17:53;9.35;;;7.15;;
26774;SDS011;14362;51.902;7.626;2023-08-17T20:21:55;9.23;;;6.82;;
26774;SDS011;14362;51.902;7.626;2023-08-17T20:25:56;9.48;;;6.90;;
26774;SDS011;14362;51.902;7.626;2023-08-17T20:29:58;9.40;;;6.85;;
26774;SDS011;14362;51.902;7.626;2023-08-17T20:34:00;10.32;;;7.43;;
26774;SDS011;14362;51.902;7.626;2023-08-17T20:38:02;10.68;;;7.00;;
26774;SDS011;14362;51.902;7.626;2023-08-17T20:42:07;9.35;;;6.60;;
26774;SDS011;14362;51.902;7.626;2023-08-17T20:46:10;9.52;;;6.25;;
26774;SDS011;14362;51.902;7.626;2023-08-17T20:50:13;9.52;;;7.40;;
26774;SDS011;14362;51.902;7.626;2023-08-17T20:54:14;9.95;;;7.00;;
26774;SDS011;14362;51.902;7.626;2023-08-17T20:58:16;9.77;;;8.00;;
26774;SDS011;14362;51.902;7.626;2023-08-17T21:02:18;12.20;;;7.45;;
26774;SDS011;14362;51.902;7.626;2023-08-17T21:06:20;7.88;;;6.70;;
26774;SDS011;14362;51.902;7.626;2023-08-17T21:10:22;10.15;;;6.88;;
26774;SDS011;14362;51.902;7.626;2023-08-17T21:14:24;9.50;;;6.78;;
26774;SDS011;14362;51.902;7.626;2023-08-17T21:18:25;11.02;;;7.68;;
26774;SDS011;14362;51.902;7.626;2023-08-17T21:22:28;10.48;;;7.70;;
26774;SDS011;14362;51.902;7.626;2023-08-17T21:26:29;10.32;;;7.72;;
26774;SDS011;14362;51.902;7.626;2023-08-17T21:30:31;10.13;;;8.27;;
26774;SDS011;14362;51.902;7.626;2023-08-17T21:34:33;8.32;;;7.07;;
26774;SDS011;14362;51.902;7.626;2023-08-17T21:38:36;8.98;;;7.93;;
26774;SDS011;14362;51.902;7.626;2023-08-17T21:42:37;11.55;;;7.40;;
26774;SDS011;14362;51.902;7.626;2023-08-17T21:46:39;10.15;;;8.65;;
26774;SDS011;14362;51.902;7.626;2023-08-17T21:50:40;10.13;;;8.80;;
26774;SDS011;14362;51.902;7.626;2023-08-17T21:54:43;9.82;;;8.57;;
26774;SDS011;14362;51.902;7.626;2023-08-17T21:58:45;10.40;;;8.65;;
26774;SDS011;14362;51.902;7.626;2023-08-17T22:02:46;9.73;;;8.52;;
26774;SDS011;14362;51.902;7.626;2023-08-17T22:06:48;10.35;;;8.23;;
26774;SDS011;14362;51.902;7.626;2023-08-17T22:10:51;10.80;;;9.02;;
26774;SDS011;14362;51.902;7.626;2023-08-17T22:14:52;11.02;;;9.82;;
26774;SDS011;14362;51.902;7.626;2023-08-17T22:18:55;12.25;;;10.13;;
26774;SDS011;14362;51.902;7.626;2023-08-17T22:22:57;11.00;;;9.77;;
26774;SDS011;14362;51.902;7.626;2023-08-17T22:26:59;13.45;;;10.60;;
26774;SDS011;14362;51.902;7.626;2023-08-17T22:31:01;10.52;;;9.50;;
26774;SDS011;14362;51.902;7.626;2023-08-17T22:35:03;11.25;;;10.15;;
26774;SDS011;14362;51.902;7.626;2023-08-17T22:39:08;11.95;;;10.25;;
26774;SDS011;14362;51.902;7.626;2023-08-17T22:43:11;12.63;;;11.30;;
26774;SDS011;14362;51.902;7.626;2023-08-17T22:47:12;13.35;;;11.65;;
26774;SDS011;14362;51.902;7.626;2023-08-17T22:51:14;13.82;;;12.35;;
26774;SDS011;14362;51.902;7.626;2023-08-17T22:55:16;14.25;;;12.73;;
26774;SDS011;14362;51.902;7.626;2023-08-17T22:59:19;15.10;;;12.15;;
26774;SDS011;14362;51.902;7.626;2023-08-17T23:03:20;16.65;;;13.35;;
26774;SDS011;14362;51.902;7.626;2023-08-17T23:07:22;15.07;;;13.18;;
26774;SDS011;14362;51.902;7.626;2023-08-17T23:11:23;16.55;;;14.07;;
26774;SDS011;14362;51.902;7.626;2023-08-17T23:15:26;21.08;;;15.35;;
26774;SDS011;14362;51.902;7.626;2023-08-17T23:19:28;17.63;;;15.32;;
26774;SDS011;14362;51.902;7.626;2023-08-17T23:23:30;19.58;;;14.93;;
26774;SDS011;14362;51.902;7.626;2023-08-17T23:27:31;21.90;;;15.85;;
26774;SDS011;14362;51.902;7.626;2023-08-17T23:31:34;19.48;;;17.00;;
26774;SDS011;14362;51.902;7.626;2023-08-17T23:35:35;18.48;;;16.58;;
26774;SDS011;14362;51.902;7.626;2023-08-17T23:39:38;17.65;;;15.80;;
26774;SDS011;14362;51.902;7.626;2023-08-17T23:43:40;17.00;;;15.20;;
26774;SDS011;14362;51.902;7.626;2023-08-17T23:47:42;17.52;;;15.68;;
26774;SDS011;14362;51.902;7.626;2023-08-17T23:51:44;18.50;;;16.58;;
26774;SDS011;14362;51.902;7.626;2023-08-17T23:55:45;17.55;;;15.68;;
26774;SDS011;14362;51.902;7.626;2023-08-17T23:59:47;18.45;;;16.63;;
